Time;durP1;ratioP1;P1;durP2;ratioP2;P2;SDS_P1;SDS_P2;PMS_P1;PMS_P2;Temp;Humidity;BMP_temperature;BMP_pressure;BME280_temperature;BME280_humidity;BME280_pressure;Samples;Min_cycle;Max_cycle;Signal;HPM_P1;HPM_P2
2021/04/10 00:01:37;;;;;;;51.22;34.92;;;7.50;54.90;;;;;;5035824;28;20079;-60
2021/04/10 00:04:04;;;;;;;49.40;34.80;;;7.50;55.10;;;;;;5035587;28;20029;-57
2021/04/10 00:06:30;;;;;;;52.47;34.83;;;7.50;55.10;;;;;;5035939;28;20056;-54
2021/04/10 00:08:56;;;;;;;46.40;32.42;;;7.50;55.10;;;;;;5034725;28;20021;-56
2021/04/10 00:11:22;;;;;;;49.33;33.90;;;7.40;55.00;;;;;;5035515;28;20021;-59
2021/04/10 00:13:48;;;;;;;50.70;34.63;;;7.40;55.00;;;;;;5036203;28;20113;-55
2021/04/10 00:16:14;;;;;;;55.47;34.22;;;7.40;55.40;;;;;;5042221;28;20400;-56
2021/04/10 00:18:39;;;;;;;55.13;36.72;;;7.40;55.50;;;;;;5043850;28;20033;-56
2021/04/10 00:21:05;;;;;;;57.55;36.80;;;7.30;55.50;;;;;;5035965;28;20026;-59
2021/04/10 00:23:31;;;;;;;55.35;37.75;;;7.30;55.60;;;;;;5035003;28;20120;-58
2021/04/10 00:25:56;;;;;;;51.65;36.67;;;7.30;55.70;;;;;;5033049;28;20022;-57
2021/04/10 00:28:22;;;;;;;49.92;34.65;;;7.30;55.80;;;;;;5035153;28;20354;-57
2021/04/10 00:30:48;;;;;;;53.03;35.00;;;7.20;55.80;;;;;;5035179;28;20033;-58
2021/04/10 00:33:13;;;;;;;50.42;34.65;;;7.20;55.80;;;;;;5035128;28;20036;-60
2021/04/10 00:35:42;;;;;;;59.35;37.55;;;7.20;56.10;;;;;;5025616;28;20120;-57
2021/04/10 00:38:08;;;;;;;46.33;32.60;;;7.10;56.20;;;;;;5023171;28;20022;-57
2021/04/10 00:40:33;;;;;;;51.15;33.70;;;7.10;56.20;;;;;;5034838;28;20029;-58
2021/04/10 00:42:59;;;;;;;47.00;33.03;;;7.00;56.30;;;;;;5034340;28;20100;-56
2021/04/10 00:45:25;;;;;;;50.60;33.88;;;7.00;56.50;;;;;;5035135;28;20028;-57
2021/04/10 00:47:50;;;;;;;51.63;36.13;;;7.00;56.50;;;;;;5033664;28;20014;-57
2021/04/10 00:50:16;;;;;;;49.40;34.42;;;7.00;56.70;;;;;;5034937;28;20056;-57
2021/04/10 00:52:42;;;;;;;45.42;32.13;;;6.90;56.80;;;;;;5034903;28;20029;-58
2021/04/10 00:55:10;;;;;;;46.75;34.15;;;7.00;56.70;;;;;;5034396;28;20033;-58
2021/04/10 00:57:36;;;;;;;49.47;33.95;;;7.00;56.70;;;;;;5034590;28;20022;-58
2021/04/10 01:00:06;;;;;;;50.42;33.78;;;7.00;56.50;;;;;;5033649;28;20726;-58
2021/04/10 01:02:32;;;;;;;49.45;34.50;;;7.10;56.60;;;;;;5040441;28;20026;-58
2021/04/10 01:04:58;;;;;;;51.58;33.70;;;7.10;57.20;;;;;;5034399;28;20024;-57
2021/04/10 01:07:24;;;;;;;47.92;33.00;;;7.10;56.60;;;;;;5034227;28;20025;-58
2021/04/10 01:09:50;;;;;;;46.70;31.48;;;7.10;56.60;;;;;;5041119;28;20028;-58
2021/04/10 01:12:45;;;;;;;44.30;30.60;;;7.10;56.70;;;;;;5039058;28;20101;-57
2021/04/10 01:15:28;;;;;;;47.63;31.80;;;7.10;56.50;;;;;;5034056;28;20373;-58
2021/04/10 01:18:02;;;;;;;47.08;31.23;;;7.00;56.70;;;;;;5026050;28;20056;-58
2021/04/10 01:20:46;;;;;;;48.22;32.63;;;7.00;56.80;;;;;;5034041;28;20036;-58
2021/04/10 01:23:49;;;;;;;38.72;29.08;;;7.00;56.90;;;;;;5025854;28;20076;-56
2021/04/10 01:26:38;;;;;;;42.75;29.83;;;6.90;56.80;;;;;;5028789;28;20377;-58
2021/04/10 01:29:08;;;;;;;46.63;29.70;;;6.90;56.90;;;;;;5032869;28;20473;-55
2021/04/10 01:31:40;;;;;;;41.03;29.05;;;6.90;57.10;;;;;;5040218;28;20032;-58
2021/04/10 01:34:13;;;;;;;40.58;28.13;;;6.90;57.20;;;;;;5035514;28;20021;-55
2021/04/10 01:36:43;;;;;;;39.95;29.40;;;6.90;57.10;;;;;;5035901;28;20032;-58
2021/04/10 01:39:12;;;;;;;42.58;28.95;;;6.90;57.20;;;;;;5033436;28;20087;-58
2021/04/10 01:41:43;;;;;;;40.88;28.65;;;6.90;57.20;;;;;;5036529;28;20033;-57
2021/04/10 01:44:10;;;;;;;38.95;27.30;;;6.90;57.30;;;;;;5032628;28;20865;-58
2021/04/10 01:46:36;;;;;;;38.65;27.02;;;6.90;57.30;;;;;;5034018;28;20032;-59
2021/04/10 01:49:03;;;;;;;37.72;27.50;;;6.90;57.40;;;;;;5033598;28;20521;-58
2021/04/10 01:51:30;;;;;;;36.92;25.92;;;6.90;57.30;;;;;;5027261;28;20037;-58
2021/04/10 01:53:56;;;;;;;34.53;25.33;;;6.90;57.30;;;;;;5033662;28;20022;-56
2021/04/10 01:56:23;;;;;;;36.28;25.45;;;6.90;57.30;;;;;;5033313;28;20128;-58
2021/04/10 01:58:49;;;;;;;41.15;26.58;;;6.90;57.20;;;;;;5033179;28;20030;-55
2021/04/10 02:01:17;;;;;;;36.20;25.63;;;6.90;57.30;;;;;;5033448;28;20477;-57
2021/04/10 02:03:47;;;;;;;33.72;24.85;;;6.90;57.60;;;;;;5034856;28;20025;-57
2021/04/10 02:06:15;;;;;;;35.65;24.75;;;6.80;57.30;;;;;;5015931;28;20520;-56
2021/04/10 02:08:45;;;;;;;36.08;23.73;;;6.90;57.40;;;;;;5030057;28;20021;-54
2021/04/10 02:11:14;;;;;;;31.92;22.35;;;6.80;57.30;;;;;;5033469;28;20453;-54
2021/04/10 02:13:40;;;;;;;29.80;20.85;;;6.80;57.40;;;;;;5032916;28;20029;-57
2021/04/10 02:16:06;;;;;;;33.13;24.55;;;6.90;58.10;;;;;;5033123;28;20389;-57
2021/04/10 02:18:34;;;;;;;30.83;23.13;;;6.80;57.40;;;;;;5033329;28;20034;-57
2021/04/10 02:21:05;;;;;;;24.75;17.83;;;6.90;57.40;;;;;;5033239;28;20021;-58
2021/04/10 02:23:32;;;;;;;26.77;19.88;;;6.80;57.30;;;;;;5032290;28;20385;-58
2021/04/10 02:26:00;;;;;;;27.67;19.60;;;6.80;57.20;;;;;;5033029;28;20030;-57
2021/04/10 02:28:25;;;;;;;32.25;22.38;;;6.90;57.10;;;;;;5033204;28;20051;-58
2021/04/10 02:30:51;;;;;;;31.27;21.83;;;6.90;56.90;;;;;;5033960;28;20407;-57
2021/04/10 02:33:25;;;;;;;28.17;21.55;;;6.90;57.00;;;;;;5034597;28;20036;-57
2021/04/10 02:35:54;;;;;;;30.98;24.13;;;6.90;57.10;;;;;;5032938;28;20025;-57
2021/04/10 02:38:21;;;;;;;33.40;23.42;;;6.90;57.00;;;;;;5033236;28;20381;-58
2021/04/10 02:40:52;;;;;;;35.28;24.15;;;6.90;56.90;;;;;;5035614;28;20028;-58
2021/04/10 02:43:26;;;;;;;36.80;25.25;;;6.80;57.00;;;;;;5039228;28;20129;-58
2021/04/10 02:45:57;;;;;;;37.10;24.83;;;6.90;57.10;;;;;;5032963;28;20034;-58
2021/04/10 02:48:26;;;;;;;34.88;24.42;;;6.80;57.10;;;;;;5033108;28;20021;-58
2021/04/10 02:50:56;;;;;;;30.60;22.83;;;6.80;57.20;;;;;;5032580;28;20057;-58
2021/04/10 02:53:24;;;;;;;28.20;20.92;;;6.70;57.30;;;;;;5032929;28;20057;-57
2021/04/10 02:55:55;;;;;;;31.27;22.80;;;6.70;57.80;;;;;;5032484;28;20049;-58
2021/04/10 02:58:22;;;;;;;30.10;21.33;;;6.70;57.40;;;;;;5032322;28;20488;-57
2021/04/10 03:00:49;;;;;;;28.92;20.55;;;6.70;57.50;;;;;;5032924;28;20037;-57
2021/04/10 03:03:16;;;;;;;28.75;20.23;;;6.70;57.50;;;;;;5043912;28;20029;-57
2021/04/10 03:05:45;;;;;;;29.58;19.27;;;6.70;57.30;;;;;;5032552;28;20029;-58
2021/04/10 03:08:15;;;;;;;29.58;20.38;;;6.70;57.40;;;;;;5032729;28;20108;-57
2021/04/10 03:10:48;;;;;;;31.02;22.10;;;6.70;57.50;;;;;;5033341;28;20044;-57
2021/04/10 03:13:15;;;;;;;26.08;19.92;;;6.60;57.40;;;;;;5018587;28;20029;-58
2021/04/10 03:15:41;;;;;;;29.33;20.38;;;6.70;57.30;;;;;;5036088;28;20354;-58
2021/04/10 03:18:09;;;;;;;27.10;20.77;;;6.60;57.40;;;;;;5036514;28;20052;-57
2021/04/10 03:20:35;;;;;;;22.65;17.52;;;6.70;57.40;;;;;;5022265;28;20044;-57
2021/04/10 03:23:01;;;;;;;24.23;17.08;;;6.70;57.30;;;;;;5036329;28;20026;-58
2021/04/10 03:25:27;;;;;;;21.40;15.98;;;6.70;57.20;;;;;;5036327;28;20551;-58
2021/04/10 03:27:53;;;;;;;25.80;19.08;;;6.70;57.40;;;;;;5036137;28;20034;-58
2021/04/10 03:30:20;;;;;;;27.23;19.15;;;6.70;57.40;;;;;;5036363;28;20028;-58
2021/04/10 03:32:46;;;;;;;22.50;17.33;;;6.80;57.70;;;;;;5030667;28;20075;-57
2021/04/10 03:35:13;;;;;;;24.83;17.63;;;6.80;57.80;;;;;;5036144;28;20064;-58
2021/04/10 03:37:39;;;;;;;23.60;18.63;;;6.80;58.00;;;;;;5025392;28;20076;-58
2021/04/10 03:40:06;;;;;;;27.25;19.10;;;6.80;58.00;;;;;;5036082;28;20033;-59
2021/04/10 03:42:39;;;;;;;26.33;17.77;;;6.80;57.90;;;;;;5041172;28;20083;-58
2021/04/10 03:45:06;;;;;;;26.15;18.38;;;6.90;58.10;;;;;;5035730;28;20037;-58
2021/04/10 03:47:31;;;;;;;29.40;19.55;;;6.90;58.10;;;;;;5036131;28;20067;-58
2021/04/10 03:49:57;;;;;;;23.10;16.90;;;6.90;58.10;;;;;;5035283;28;20021;-58
2021/04/10 03:52:23;;;;;;;24.58;19.75;;;7.00;58.10;;;;;;5036275;28;20075;-57
2021/04/10 03:54:49;;;;;;;32.67;20.05;;;7.00;58.10;;;;;;5036153;28;20030;-58
2021/04/10 03:57:14;;;;;;;32.15;22.80;;;7.10;58.10;;;;;;5035289;28;20049;-58
2021/04/10 03:59:41;;;;;;;35.22;24.20;;;7.10;58.20;;;;;;5035875;28;20041;-58
2021/04/10 04:02:06;;;;;;;40.00;27.33;;;7.20;58.10;;;;;;5035806;28;20037;-57
2021/04/10 04:04:32;;;;;;;40.05;25.58;;;7.30;58.30;;;;;;5035383;28;20097;-58
2021/04/10 04:06:58;;;;;;;37.25;23.13;;;7.40;58.00;;;;;;5034686;28;20039;-58
2021/04/10 04:09:23;;;;;;;30.70;21.40;;;7.50;57.90;;;;;;5042574;28;20211;-58
2021/04/10 04:11:49;;;;;;;31.45;22.13;;;7.60;58.60;;;;;;5042101;28;20028;-59
2021/04/10 04:14:17;;;;;;;34.15;22.48;;;7.80;58.00;;;;;;5028189;28;20080;-58
2021/04/10 04:16:43;;;;;;;33.33;23.33;;;7.90;58.00;;;;;;5035396;28;20120;-57
2021/04/10 04:19:08;;;;;;;36.33;23.75;;;8.00;58.00;;;;;;5021786;28;20107;-58
2021/04/10 04:21:34;;;;;;;32.00;22.27;;;8.10;58.10;;;;;;5035225;28;20022;-59
2021/04/10 04:23:59;;;;;;;30.85;22.23;;;8.30;57.90;;;;;;5034236;28;20032;-58
2021/04/10 04:26:25;;;;;;;31.95;22.40;;;8.40;57.60;;;;;;5035449;28;20442;-58
2021/04/10 04:28:51;;;;;;;30.92;22.77;;;8.60;57.40;;;;;;5035408;28;20021;-58
2021/04/10 04:31:17;;;;;;;30.80;21.35;;;8.80;57.20;;;;;;5034067;28;20021;-58
2021/04/10 04:33:42;;;;;;;31.52;23.60;;;9.00;56.80;;;;;;5035295;28;20026;-58
2021/04/10 04:36:08;;;;;;;32.67;23.27;;;9.20;56.50;;;;;;5034939;28;20524;-57
2021/04/10 04:38:34;;;;;;;40.38;27.55;;;9.40;56.10;;;;;;5034964;28;20013;-58
2021/04/10 04:40:59;;;;;;;40.80;29.92;;;9.60;55.50;;;;;;5030602;28;20022;-58
2021/04/10 04:43:25;;;;;;;41.75;30.52;;;9.70;54.80;;;;;;5032912;28;20033;-59
2021/04/10 04:45:51;;;;;;;46.75;32.53;;;9.90;54.30;;;;;;5026176;28;20382;-58
2021/04/10 04:48:16;;;;;;;48.67;31.63;;;10.00;54.00;;;;;;5034729;28;20036;-58
2021/04/10 04:50:42;;;;;;;43.17;30.92;;;10.30;54.10;;;;;;5034986;28;20068;-55
2021/04/10 04:53:08;;;;;;;37.20;26.27;;;10.80;53.70;;;;;;5034593;28;20022;-59
2021/04/10 04:55:33;;;;;;;36.20;25.38;;;11.30;53.20;;;;;;5034604;28;20501;-58
2021/04/10 04:57:59;;;;;;;37.08;27.38;;;12.00;52.70;;;;;;5033107;28;20029;-59
2021/04/10 05:00:25;;;;;;;45.78;33.05;;;12.60;52.00;;;;;;5032320;28;20029;-58
2021/04/10 05:02:51;;;;;;;45.83;32.70;;;13.00;51.20;;;;;;5034353;28;20049;-59
2021/04/10 05:05:16;;;;;;;45.58;33.20;;;13.50;50.20;;;;;;5030173;28;20477;-58
2021/04/10 05:07:42;;;;;;;43.38;32.38;;;13.70;49.20;;;;;;5032657;28;20021;-59
2021/04/10 05:10:08;;;;;;;44.35;33.15;;;14.00;48.80;;;;;;5036067;28;20025;-59
2021/04/10 05:12:34;;;;;;;46.28;31.63;;;14.30;48.50;;;;;;5034530;28;20033;-59
2021/04/10 05:15:00;;;;;;;49.97;34.53;;;14.50;48.00;;;;;;5015833;28;20032;-57
2021/04/10 05:17:25;;;;;;;44.50;32.72;;;14.80;47.70;;;;;;5034129;28;20018;-59
2021/04/10 05:19:51;;;;;;;43.17;31.58;;;15.30;47.10;;;;;;5028905;28;20053;-58
2021/04/10 05:22:17;;;;;;;47.88;34.60;;;15.80;46.50;;;;;;5034229;28;20025;-58
2021/04/10 05:24:42;;;;;;;46.03;33.22;;;16.30;45.90;;;;;;5016265;28;20416;-58
2021/04/10 05:27:08;;;;;;;46.50;34.50;;;16.80;45.10;;;;;;5034024;28;20496;-57
2021/04/10 05:29:34;;;;;;;41.22;30.95;;;17.20;44.50;;;;;;5034080;28;20016;-56
2021/04/10 05:32:00;;;;;;;41.58;30.65;;;17.60;43.90;;;;;;5032542;28;20108;-57
2021/04/10 05:34:26;;;;;;;42.50;32.53;;;17.90;42.90;;;;;;5031490;28;20044;-59
2021/04/10 05:36:52;;;;;;;43.28;32.15;;;18.10;42.50;;;;;;5033653;28;20426;-59
2021/04/10 05:39:17;;;;;;;42.63;33.03;;;18.30;42.30;;;;;;5033471;28;20029;-59
2021/04/10 05:41:43;;;;;;;43.55;32.20;;;18.50;42.00;;;;;;5037114;28;20036;-59
2021/04/10 05:44:09;;;;;;;36.25;28.90;;;18.80;41.50;;;;;;5039896;28;20025;-58
2021/04/10 05:46:34;;;;;;;41.40;30.85;;;19.10;40.50;;;;;;5033981;28;20013;-58
2021/04/10 05:49:00;;;;;;;35.35;27.98;;;19.30;39.60;;;;;;5030451;28;20115;-57
2021/04/10 05:51:26;;;;;;;39.47;30.65;;;19.30;39.00;;;;;;5033393;28;20473;-56
2021/04/10 05:53:51;;;;;;;37.63;30.67;;;19.00;39.00;;;;;;5033631;28;20104;-58
2021/04/10 05:56:17;;;;;;;43.10;32.35;;;18.60;39.50;;;;;;5033085;28;20050;-57
2021/04/10 05:58:43;;;;;;;44.25;30.77;;;18.00;39.70;;;;;;5033539;28;20029;-57
2021/04/10 06:01:08;;;;;;;42.78;31.73;;;17.50;40.40;;;;;;5030602;28;20084;-57
2021/04/10 06:03:34;;;;;;;43.05;33.50;;;17.00;40.80;;;;;;5023951;28;20025;-58
2021/04/10 06:06:00;;;;;;;41.90;30.98;;;16.50;41.30;;;;;;5032460;28;20024;-55
2021/04/10 06:08:25;;;;;;;40.35;30.10;;;16.10;41.70;;;;;;5032518;28;20027;-54
2021/04/10 06:10:51;;;;;;;49.22;32.67;;;15.70;41.90;;;;;;5033670;28;20361;-58
2021/04/10 06:13:19;;;;;;;52.78;37.72;;;15.30;42.10;;;;;;5033480;28;20064;-58
2021/04/10 06:15:44;;;;;;;52.35;36.15;;;15.00;42.70;;;;;;5033302;28;20076;-57
2021/04/10 06:18:10;;;;;;;52.45;33.20;;;14.80;43.30;;;;;;5033176;28;20025;-57
2021/04/10 06:20:36;;;;;;;42.45;30.83;;;14.60;43.70;;;;;;5033264;28;20079;-57
2021/04/10 06:23:01;;;;;;;41.28;31.20;;;14.40;43.80;;;;;;5036310;28;20527;-58
2021/04/10 06:25:27;;;;;;;48.47;33.67;;;14.10;44.10;;;;;;5041946;28;20022;-56
2021/04/10 06:27:53;;;;;;;45.13;31.90;;;14.00;44.70;;;;;;5032954;28;20499;-58
2021/04/10 06:30:19;;;;;;;48.05;32.25;;;13.80;45.20;;;;;;5028962;28;20029;-57
2021/04/10 06:32:44;;;;;;;41.72;30.45;;;13.70;45.70;;;;;;5031664;28;20136;-59
2021/04/10 06:35:11;;;;;;;32.47;24.38;;;13.60;46.00;;;;;;5037671;28;20025;-59
2021/04/10 06:37:36;;;;;;;27.10;21.52;;;13.40;45.90;;;;;;5032797;28;20021;-58
2021/04/10 06:40:04;;;;;;;28.50;22.20;;;13.30;45.80;;;;;;5032147;28;20037;-59
2021/04/10 06:42:31;;;;;;;29.13;24.10;;;13.20;45.80;;;;;;5028125;28;20029;-60
2021/04/10 06:44:58;;;;;;;34.67;24.42;;;13.10;46.10;;;;;;5028621;28;20078;-58
2021/04/10 06:47:27;;;;;;;31.45;24.33;;;12.90;46.10;;;;;;5033237;28;20040;-60
2021/04/10 06:49:53;;;;;;;35.05;26.85;;;12.80;46.50;;;;;;5033784;28;20519;-58
2021/04/10 06:52:20;;;;;;;31.67;24.67;;;12.80;46.70;;;;;;5029454;28;20509;-59
2021/04/10 06:54:51;;;;;;;32.60;26.05;;;12.80;46.80;;;;;;5034126;28;20136;-59
2021/04/10 06:57:17;;;;;;;;;;;12.70;46.90;;;;;;5030744;28;20091;-59
2021/04/10 06:59:50;;;;;;;31.30;24.23;;;12.60;47.30;;;;;;5031403;28;20288;-59
2021/04/10 07:02:17;;;;;;;31.88;25.40;;;12.60;47.20;;;;;;5033379;28;20037;-59
2021/04/10 07:04:43;;;;;;;33.47;26.73;;;12.60;47.60;;;;;;5033592;28;20032;-59
2021/04/10 07:07:10;;;;;;;33.40;26.48;;;12.60;47.90;;;;;;5036325;28;20021;-58
2021/04/10 07:09:36;;;;;;;37.40;28.88;;;12.60;48.10;;;;;;5036872;28;20045;-58
2021/04/10 07:12:07;;;;;;;39.88;31.15;;;12.60;48.50;;;;;;5031125;28;20369;-58
2021/04/10 07:14:33;;;;;;;38.25;30.02;;;12.60;48.60;;;;;;5030063;28;20029;-58
2021/04/10 07:16:59;;;;;;;35.92;28.30;;;12.60;48.80;;;;;;5022869;28;20049;-61
2021/04/10 07:19:26;;;;;;;35.25;27.88;;;12.50;49.10;;;;;;5031152;28;20091;-57
2021/04/10 07:22:09;;;;;;;36.65;27.55;;;12.50;49.20;;;;;;5034119;28;20354;-59
2021/04/10 07:24:42;;;;;;;38.40;29.02;;;12.50;49.30;;;;;;5036506;28;20026;-59
2021/04/10 07:27:31;;;;;;;37.92;27.00;;;12.50;49.70;;;;;;5031288;28;20472;-59
2021/04/10 07:29:59;;;;;;;33.90;25.63;;;12.40;49.70;;;;;;5026743;28;20482;-59
2021/04/10 07:32:36;;;;;;;41.63;31.35;;;12.40;49.80;;;;;;5030330;28;20034;-59
2021/04/10 07:35:08;;;;;;;36.15;27.00;;;12.30;50.20;;;;;;5032828;28;20067;-59
2021/04/10 07:37:49;;;;;;;37.85;28.38;;;12.30;50.20;;;;;;5032338;28;20037;-58
2021/04/10 07:40:25;;;;;;;37.17;28.95;;;12.30;50.30;;;;;;5035778;28;20017;-59
2021/04/10 07:42:52;;;;;;;34.20;26.67;;;12.20;50.30;;;;;;5034539;28;20380;-58
2021/04/10 07:45:32;;;;;;;34.85;26.00;;;12.10;50.30;;;;;;5026551;28;20093;-59
2021/04/10 07:48:05;;;;;;;34.92;26.60;;;12.00;50.40;;;;;;5033432;28;20064;-58
2021/04/10 07:50:33;;;;;;;37.03;28.88;;;12.00;50.60;;;;;;5026683;28;20096;-59
2021/04/10 07:53:22;;;;;;;40.03;28.83;;;12.00;51.00;;;;;;5019648;28;20025;-59
2021/04/10 07:55:48;;;;;;;34.28;26.45;;;12.00;51.30;;;;;;5031694;28;20053;-59
2021/04/10 07:58:43;;;;;;;36.28;27.23;;;11.90;51.00;;;;;;5029075;28;20409;-59
2021/04/10 08:01:11;;;;;;;37.00;28.50;;;11.90;51.30;;;;;;5009504;28;20033;-59
2021/04/10 08:03:39;;;;;;;38.80;30.25;;;11.90;51.50;;;;;;5023503;28;20063;-58
2021/04/10 08:06:04;;;;;;;34.20;27.85;;;11.90;51.80;;;;;;5011367;28;20022;-59
2021/04/10 08:08:31;;;;;;;36.38;27.40;;;11.90;51.50;;;;;;5028702;28;20041;-59
2021/04/10 08:11:02;;;;;;;33.78;26.55;;;12.00;51.40;;;;;;5027737;28;20390;-59
2021/04/10 08:13:28;;;;;;;33.95;24.05;;;12.00;51.20;;;;;;5030026;28;20428;-59
2021/04/10 08:16:17;;;;;;;34.55;27.73;;;12.00;51.00;;;;;;5029430;28;20037;-57
2021/04/10 08:18:54;;;;;;;39.17;29.60;;;11.90;51.40;;;;;;5030916;28;20029;-58
2021/04/10 08:21:32;;;;;;;37.95;29.55;;;11.90;51.80;;;;;;5026332;28;20108;-59
2021/04/10 08:24:04;;;;;;;37.72;28.67;;;11.90;51.80;;;;;;5024840;28;20339;-58
2021/04/10 08:26:29;;;;;;;;;;;11.90;51.60;;;;;;5032589;28;20067;-58
2021/04/10 08:28:56;;;;;;;32.50;25.50;;;11.80;51.20;;;;;;5025203;28;20343;-59
2021/04/10 08:31:22;;;;;;;32.70;26.10;;;11.80;51.40;;;;;;5026305;28;20052;-58
2021/04/10 08:33:48;;;;;;;31.98;24.30;;;11.80;51.80;;;;;;5009725;28;20030;-58
2021/04/10 08:36:15;;;;;;;37.35;25.95;;;11.90;52.10;;;;;;5032724;28;20061;-58
2021/04/10 08:38:42;;;;;;;32.78;24.70;;;11.90;51.80;;;;;;5032070;28;20037;-60
2021/04/10 08:41:12;;;;;;;31.08;24.63;;;11.90;51.40;;;;;;5034765;28;20040;-57
2021/04/10 08:43:49;;;;;;;29.52;22.73;;;12.00;51.70;;;;;;5035559;28;20043;-59
2021/04/10 08:46:19;;;;;;;31.25;22.85;;;12.00;51.90;;;;;;5025250;28;20033;-59
2021/04/10 08:48:48;;;;;;;31.75;25.17;;;12.10;52.00;;;;;;5034366;28;20060;-59
2021/04/10 08:51:15;;;;;;;27.73;23.63;;;12.10;52.20;;;;;;5028426;28;20026;-59
2021/04/10 08:53:46;;;;;;;32.75;24.83;;;12.00;52.30;;;;;;5031311;28;20052;-59
2021/04/10 08:56:17;;;;;;;27.77;23.00;;;12.10;53.00;;;;;;5029547;28;20056;-58
2021/04/10 08:58:43;;;;;;;30.17;23.50;;;12.00;53.20;;;;;;5019090;28;20290;-58
2021/04/10 09:01:16;;;;;;;32.30;24.38;;;12.00;53.10;;;;;;5032734;28;20036;-56
2021/04/10 09:03:44;;;;;;;32.08;24.33;;;12.00;53.70;;;;;;5032498;28;20108;-59
2021/04/10 09:06:11;;;;;;;33.88;26.35;;;12.00;53.90;;;;;;5023366;28;20800;-58
2021/04/10 09:08:36;;;;;;;33.00;24.73;;;12.00;54.40;;;;;;5027799;28;20167;-59
2021/04/10 09:11:03;;;;;;;33.35;26.17;;;12.00;54.40;;;;;;5025192;28;20097;-59
2021/04/10 09:13:50;;;;;;;30.25;21.50;;;12.00;54.80;;;;;;5029276;28;20040;-59
2021/04/10 09:16:33;;;;;;;31.02;21.55;;;12.00;54.90;;;;;;5028049;28;20458;-57
2021/04/10 09:19:11;;;;;;;26.15;19.70;;;11.90;54.70;;;;;;5032270;28;20029;-58
2021/04/10 09:21:45;;;;;;;25.77;17.73;;;11.80;55.00;;;;;;5041279;28;20415;-58
2021/04/10 09:24:37;;;;;;;18.58;14.13;;;11.70;55.00;;;;;;5032918;28;20608;-59
2021/04/10 09:27:17;;;;;;;16.70;12.93;;;11.70;54.60;;;;;;5022317;28;20038;-59
2021/04/10 09:29:59;;;;;;;21.52;14.50;;;11.60;54.00;;;;;;5028333;28;20068;-59
2021/04/10 09:32:27;;;;;;;;;;;11.60;55.20;;;;;;5027962;28;20032;-58
2021/04/10 09:34:56;;;;;;;18.30;13.65;;;11.50;55.30;;;;;;5029773;28;19917;-57
2021/04/10 09:37:21;;;;;;;13.88;10.85;;;11.30;54.40;;;;;;5035534;28;20041;-57
2021/04/10 09:40:03;;;;;;;16.10;11.23;;;11.30;53.70;;;;;;5030727;28;20040;-57
2021/04/10 09:42:35;;;;;;;;;;;11.30;53.60;;;;;;5028090;28;20025;-58
2021/04/10 09:45:11;;;;;;;17.02;12.43;;;11.20;54.50;;;;;;5029746;28;21966;-57
2021/04/10 09:48:01;;;;;;;14.90;10.80;;;11.20;54.20;;;;;;5028649;28;20393;-58
2021/04/10 09:50:39;;;;;;;13.25;10.18;;;11.10;54.00;;;;;;5020675;28;20017;-58
2021/04/10 09:53:08;;;;;;;13.27;10.23;;;11.20;53.80;;;;;;5032097;28;20036;-57
2021/04/10 09:55:36;;;;;;;14.52;11.25;;;11.10;53.50;;;;;;5031644;28;20436;-58
2021/04/10 09:58:07;;;;;;;14.50;10.70;;;11.10;53.30;;;;;;5026705;28;20033;-57
2021/04/10 10:00:38;;;;;;;14.15;11.18;;;11.10;53.40;;;;;;5026847;28;20044;-58
2021/04/10 10:03:06;;;;;;;13.10;9.98;;;11.10;53.60;;;;;;5031952;28;20033;-57
2021/04/10 10:05:37;;;;;;;12.45;9.20;;;11.10;52.90;;;;;;5029246;28;20100;-60
2021/04/10 10:08:04;;;;;;;11.32;7.60;;;11.10;52.20;;;;;;5029174;28;20466;-58
2021/04/10 10:10:40;;;;;;;14.10;9.80;;;11.10;51.00;;;;;;5024240;28;20028;-58
2021/04/10 10:13:17;;;;;;;11.75;9.23;;;11.00;51.80;;;;;;5032750;28;20014;-57
2021/04/10 10:15:44;;;;;;;11.52;9.50;;;11.00;52.20;;;;;;5033275;28;20045;-57
2021/04/10 10:18:20;;;;;;;13.55;9.23;;;11.00;52.90;;;;;;5039201;28;20033;-57
2021/04/10 10:21:02;;;;;;;12.73;9.30;;;11.00;53.40;;;;;;5037600;28;20560;-56
2021/04/10 10:23:28;;;;;;;;;;;10.90;53.20;;;;;;5022157;28;20100;-56
2021/04/10 10:26:01;;;;;;;9.93;7.43;;;10.80;53.00;;;;;;5032776;28;19975;-57
2021/04/10 10:28:27;;;;;;;9.73;7.68;;;10.90;53.20;;;;;;5033349;28;20013;-56
2021/04/10 10:30:53;;;;;;;9.02;7.03;;;10.90;52.80;;;;;;5032954;28;20143;-58
2021/04/10 10:33:21;;;;;;;8.63;6.97;;;10.90;52.40;;;;;;5033205;28;20022;-57
2021/04/10 10:35:53;;;;;;;10.68;8.23;;;10.90;52.60;;;;;;5030660;28;20052;-57
2021/04/10 10:38:19;;;;;;;11.40;8.52;;;10.90;53.10;;;;;;5032282;28;20100;-56
2021/04/10 10:40:49;;;;;;;9.95;8.23;;;10.80;53.20;;;;;;5033279;28;20049;-58
2021/04/10 10:43:16;;;;;;;11.90;8.35;;;10.80;53.80;;;;;;5029214;28;20047;-57
2021/04/10 10:45:47;;;;;;;10.70;7.95;;;10.70;53.70;;;;;;5032672;28;20026;-57
2021/04/10 10:48:35;;;;;;;9.38;7.40;;;10.60;53.60;;;;;;5033105;28;20067;-56
2021/04/10 10:51:01;;;;;;;9.82;7.38;;;10.60;53.90;;;;;;5022192;28;20029;-56
2021/04/10 10:53:33;;;;;;;10.35;7.82;;;10.50;54.40;;;;;;5031879;28;20033;-57
2021/04/10 10:56:03;;;;;;;;;;;10.40;53.40;;;;;;5030738;28;20567;-58
2021/04/10 10:58:45;;;;;;;10.50;7.55;;;10.30;54.10;;;;;;5033166;28;19944;-57
2021/04/10 11:01:32;;;;;;;9.32;7.28;;;10.30;53.50;;;;;;5020052;28;20104;-57
2021/04/10 11:04:26;;;;;;;10.73;7.10;;;10.20;53.60;;;;;;5031690;28;20052;-58
2021/04/10 11:06:54;;;;;;;8.48;6.47;;;10.20;53.00;;;;;;5025294;28;20038;-56
2021/04/10 11:09:28;;;;;;;11.40;7.30;;;10.20;53.10;;;;;;5024409;28;20052;-57
2021/04/10 11:12:00;;;;;;;8.23;6.85;;;10.20;53.80;;;;;;5032260;28;20076;-57
2021/04/10 11:14:30;;;;;;;8.57;6.72;;;10.20;54.20;;;;;;5038593;28;20021;-57
2021/04/10 11:16:57;;;;;;;7.82;6.50;;;10.20;54.40;;;;;;5031283;28;20029;-58
2021/04/10 11:19:36;;;;;;;9.38;6.47;;;10.20;54.00;;;;;;5032765;28;20033;-57
2021/04/10 11:22:08;;;;;;;7.82;6.43;;;10.20;54.30;;;;;;5037057;28;20021;-58
2021/04/10 11:24:44;;;;;;;8.82;6.25;;;10.20;54.10;;;;;;5037115;28;20029;-57
2021/04/10 11:27:18;;;;;;;6.97;6.07;;;10.20;54.30;;;;;;5032565;28;20060;-57
2021/04/10 11:30:04;;;;;;;7.00;6.13;;;10.20;54.50;;;;;;5032232;28;20083;-58
2021/04/10 11:32:43;;;;;;;7.03;5.88;;;10.20;54.70;;;;;;5034581;28;20033;-58
2021/04/10 11:35:22;;;;;;;7.85;6.00;;;10.20;54.70;;;;;;5036287;28;20060;-54
2021/04/10 11:37:56;;;;;;;7.10;5.95;;;10.20;54.80;;;;;;5036269;28;20053;-58
2021/04/10 11:40:27;;;;;;;7.68;5.55;;;10.20;54.20;;;;;;5036588;28;20029;-57
2021/04/10 11:42:58;;;;;;;7.50;5.63;;;10.20;54.20;;;;;;5036117;28;20079;-58
2021/04/10 11:45:38;;;;;;;6.85;5.07;;;10.20;54.40;;;;;;5032667;28;20033;-56
2021/04/10 11:48:15;;;;;;;6.60;5.15;;;10.30;53.90;;;;;;5036440;28;20017;-56
2021/04/10 11:50:55;;;;;;;7.70;5.90;;;10.30;53.90;;;;;;5048281;28;20029;-57
2021/04/10 11:53:22;;;;;;;5.85;5.18;;;10.30;53.40;;;;;;5024562;28;20032;-57
2021/04/10 11:55:49;;;;;;;5.90;4.38;;;10.30;53.10;;;;;;5035403;28;20054;-58
2021/04/10 11:58:36;;;;;;;6.00;4.90;;;10.40;53.40;;;;;;5036346;28;20350;-58
2021/04/10 12:01:07;;;;;;;5.18;4.68;;;10.40;53.10;;;;;;5036144;28;20028;-58
2021/04/10 12:03:33;;;;;;;6.38;4.68;;;10.40;53.30;;;;;;5027912;28;20029;-58
2021/04/10 12:05:59;;;;;;;6.10;4.68;;;10.40;52.80;;;;;;5035456;28;20032;-58
2021/04/10 12:08:28;;;;;;;4.38;3.67;;;10.40;52.10;;;;;;5035786;28;20527;-58
2021/04/10 12:10:56;;;;;;;4.57;3.70;;;10.50;51.40;;;;;;5033141;28;20457;-58
2021/04/10 12:13:23;;;;;;;5.28;4.45;;;10.50;51.60;;;;;;5034762;28;20080;-58
2021/04/10 12:15:52;;;;;;;4.72;3.88;;;10.50;52.00;;;;;;5033907;28;20434;-58
2021/04/10 12:18:19;;;;;;;4.82;3.95;;;10.40;52.00;;;;;;5034225;28;20462;-56
2021/04/10 12:20:46;;;;;;;5.80;4.28;;;10.40;50.80;;;;;;5033160;28;20025;-56
2021/04/10 12:23:12;;;;;;;5.55;4.97;;;10.40;50.10;;;;;;5025952;28;20068;-57
2021/04/10 12:25:38;;;;;;;4.47;3.92;;;10.40;50.90;;;;;;5038817;28;20025;-58
2021/04/10 12:28:04;;;;;;;5.10;4.22;;;10.40;51.80;;;;;;5031721;28;20381;-56
2021/04/10 12:30:30;;;;;;;6.65;4.45;;;10.40;52.50;;;;;;5034612;28;20465;-56
2021/04/10 12:32:56;;;;;;;5.28;4.55;;;10.40;51.90;;;;;;5031920;28;20030;-57
2021/04/10 12:35:22;;;;;;;5.53;4.22;;;10.40;51.60;;;;;;5032224;28;20025;-58
2021/04/10 12:37:48;;;;;;;5.38;3.95;;;10.40;51.50;;;;;;5027625;28;20029;-56
2021/04/10 12:40:14;;;;;;;5.75;4.57;;;10.40;50.90;;;;;;5262539;22;20046;-88
2021/04/10 12:42:40;;;;;;;5.88;4.80;;;10.40;51.20;;;;;;4984035;28;20104;-88
2021/04/10 12:45:08;;;;;;;5.20;4.32;;;10.40;50.70;;;;;;5012444;28;20018;-88
2021/04/10 12:47:33;;;;;;;7.47;4.97;;;10.40;50.60;;;;;;5029159;23;20133;-56